sensor_id;sensor_type;location;lat;lon;timestamp;temperature;humidity
52451;DHT22;38366;53.176;6.540;2022-07-17T00:02:14;13.00;99.90
52451;DHT22;38366;53.176;6.540;2022-07-17T00:04:40;12.90;99.90
52451;DHT22;38366;53.176;6.540;2022-07-17T00:07:06;12.90;99.90
52451;DHT22;38366;53.176;6.540;2022-07-17T00:09:32;12.90;99.90
52451;DHT22;38366;53.176;6.540;2022-07-17T00:11:57;12.90;99.90
52451;DHT22;38366;53.176;6.540;2022-07-17T00:14:23;12.90;99.90
52451;DHT22;38366;53.176;6.540;2022-07-17T00:16:49;12.90;99.90
52451;DHT22;38366;53.176;6.540;2022-07-17T00:19:15;12.90;99.90
52451;DHT22;38366;53.176;6.540;2022-07-17T00:21:41;12.80;99.90
52451;DHT22;38366;53.176;6.540;2022-07-17T00:24:07;12.80;99.90
52451;DHT22;38366;53.176;6.540;2022-07-17T00:26:34;12.80;99.90
52451;DHT22;38366;53.176;6.540;2022-07-17T00:29:00;12.80;99.90
52451;DHT22;38366;53.176;6.540;2022-07-17T00:31:27;12.70;99.90
52451;DHT22;38366;53.176;6.540;2022-07-17T00:33:52;12.70;99.90
52451;DHT22;38366;53.176;6.540;2022-07-17T00:36:18;12.60;99.90
52451;DHT22;38366;53.176;6.540;2022-07-17T00:38:43;12.60;99.90
52451;DHT22;38366;53.176;6.540;2022-07-17T00:41:09;12.60;99.90
52451;DHT22;38366;53.176;6.540;2022-07-17T00:43:35;12.60;99.90
52451;DHT22;38366;53.176;6.540;2022-07-17T00:46:02;12.50;99.90
52451;DHT22;38366;53.176;6.540;2022-07-17T00:48:28;12.50;99.90
52451;DHT22;38366;53.176;6.540;2022-07-17T00:50:54;12.30;99.90
52451;DHT22;38366;53.176;6.540;2022-07-17T00:53:21;12.30;99.90
52451;DHT22;38366;53.176;6.540;2022-07-17T00:55:47;12.30;99.90
52451;DHT22;38366;53.176;6.540;2022-07-17T00:58:24;12.30;99.90
52451;DHT22;38366;53.176;6.540;2022-07-17T01:00:51;12.20;99.90
52451;DHT22;38366;53.176;6.540;2022-07-17T01:03:19;12.20;99.90
52451;DHT22;38366;53.176;6.540;2022-07-17T01:05:46;12.10;99.90
52451;DHT22;38366;53.176;6.540;2022-07-17T01:08:12;12.00;99.90
52451;DHT22;38366;53.176;6.540;2022-07-17T01:10:38;12.00;99.90
52451;DHT22;38366;53.176;6.540;2022-07-17T01:13:05;12.00;99.90
52451;DHT22;38366;53.176;6.540;2022-07-17T01:15:32;11.90;99.90
52451;DHT22;38366;53.176;6.540;2022-07-17T01:17:59;12.00;99.90
52451;DHT22;38366;53.176;6.540;2022-07-17T01:20:25;11.90;99.90
52451;DHT22;38366;53.176;6.540;2022-07-17T01:22:51;11.90;99.90
52451;DHT22;38366;53.176;6.540;2022-07-17T01:25:19;11.90;99.90
52451;DHT22;38366;53.176;6.540;2022-07-17T01:27:46;11.90;99.90
52451;DHT22;38366;53.176;6.540;2022-07-17T01:30:12;11.80;99.90
52451;DHT22;38366;53.176;6.540;2022-07-17T01:32:40;11.80;99.90
52451;DHT22;38366;53.176;6.540;2022-07-17T01:35:07;11.70;99.90
52451;DHT22;38366;53.176;6.540;2022-07-17T01:37:33;11.80;99.90
52451;DHT22;38366;53.176;6.540;2022-07-17T01:39:59;11.70;99.90
52451;DHT22;38366;53.176;6.540;2022-07-17T01:42:26;11.80;99.90
52451;DHT22;38366;53.176;6.540;2022-07-17T01:44:54;11.80;99.90
52451;DHT22;38366;53.176;6.540;2022-07-17T01:47:20;11.80;99.90
52451;DHT22;38366;53.176;6.540;2022-07-17T01:49:48;11.80;99.90
52451;DHT22;38366;53.176;6.540;2022-07-17T01:52:14;11.70;99.90
52451;DHT22;38366;53.176;6.540;2022-07-17T01:54:41;11.70;99.90
52451;DHT22;38366;53.176;6.540;2022-07-17T01:57:07;11.70;99.90
52451;DHT22;38366;53.176;6.540;2022-07-17T01:59:33;11.70;99.90
52451;DHT22;38366;53.176;6.540;2022-07-17T02:01:59;11.70;99.90
52451;DHT22;38366;53.176;6.540;2022-07-17T02:04:24;11.70;99.90
52451;DHT22;38366;53.176;6.540;2022-07-17T02:06:53;11.70;99.90
52451;DHT22;38366;53.176;6.540;2022-07-17T02:09:19;11.60;99.90
52451;DHT22;38366;53.176;6.540;2022-07-17T02:11:45;11.60;99.90
52451;DHT22;38366;53.176;6.540;2022-07-17T02:14:10;11.60;99.90
52451;DHT22;38366;53.176;6.540;2022-07-17T02:16:36;11.60;99.90
52451;DHT22;38366;53.176;6.540;2022-07-17T02:19:02;11.60;99.90
52451;DHT22;38366;53.176;6.540;2022-07-17T02:21:28;11.50;99.90
52451;DHT22;38366;53.176;6.540;2022-07-17T02:23:53;11.50;99.90
52451;DHT22;38366;53.176;6.540;2022-07-17T02:26:19;11.60;99.90
52451;DHT22;38366;53.176;6.540;2022-07-17T02:28:45;11.50;99.90
52451;DHT22;38366;53.176;6.540;2022-07-17T02:31:10;11.50;99.90
52451;DHT22;38366;53.176;6.540;2022-07-17T02:33:36;11.40;99.90
52451;DHT22;38366;53.176;6.540;2022-07-17T02:36:02;11.40;99.90
52451;DHT22;38366;53.176;6.540;2022-07-17T02:38:28;11.40;99.90
52451;DHT22;38366;53.176;6.540;2022-07-17T02:40:54;11.40;99.90
52451;DHT22;38366;53.176;6.540;2022-07-17T02:43:19;11.40;99.90
52451;DHT22;38366;53.176;6.540;2022-07-17T02:45:45;11.40;99.90
52451;DHT22;38366;53.176;6.540;2022-07-17T02:48:11;11.40;99.90
52451;DHT22;38366;53.176;6.540;2022-07-17T02:50:36;11.30;99.90
52451;DHT22;38366;53.176;6.540;2022-07-17T02:53:02;11.30;99.90
52451;DHT22;38366;53.176;6.540;2022-07-17T02:55:28;11.30;99.90
52451;DHT22;38366;53.176;6.540;2022-07-17T02:57:54;11.30;99.90
52451;DHT22;38366;53.176;6.540;2022-07-17T03:00:19;11.30;99.90
52451;DHT22;38366;53.176;6.540;2022-07-17T03:02:46;11.30;99.90
52451;DHT22;38366;53.176;6.540;2022-07-17T03:05:13;11.20;99.90
52451;DHT22;38366;53.176;6.540;2022-07-17T03:07:39;11.20;99.90
52451;DHT22;38366;53.176;6.540;2022-07-17T03:10:06;11.10;99.90
52451;DHT22;38366;53.176;6.540;2022-07-17T03:12:32;11.10;99.90
52451;DHT22;38366;53.176;6.540;2022-07-17T03:14:58;11.10;99.90
52451;DHT22;38366;53.176;6.540;2022-07-17T03:17:23;11.00;99.90
52451;DHT22;38366;53.176;6.540;2022-07-17T03:19:49;11.00;99.90
52451;DHT22;38366;53.176;6.540;2022-07-17T03:22:15;11.00;99.90
52451;DHT22;38366;53.176;6.540;2022-07-17T03:24:41;10.90;99.90
52451;DHT22;38366;53.176;6.540;2022-07-17T03:27:07;11.00;99.90
52451;DHT22;38366;53.176;6.540;2022-07-17T03:29:33;10.90;99.90
52451;DHT22;38366;53.176;6.540;2022-07-17T03:31:58;10.80;99.90
52451;DHT22;38366;53.176;6.540;2022-07-17T03:34:24;10.90;99.90
52451;DHT22;38366;53.176;6.540;2022-07-17T03:36:50;10.90;99.90
52451;DHT22;38366;53.176;6.540;2022-07-17T03:39:16;10.80;99.90
52451;DHT22;38366;53.176;6.540;2022-07-17T03:41:41;10.80;99.90
52451;DHT22;38366;53.176;6.540;2022-07-17T03:44:07;11.00;99.90
52451;DHT22;38366;53.176;6.540;2022-07-17T03:46:33;10.90;99.90
52451;DHT22;38366;53.176;6.540;2022-07-17T03:48:58;10.90;99.90
52451;DHT22;38366;53.176;6.540;2022-07-17T03:51:24;10.90;99.90
52451;DHT22;38366;53.176;6.540;2022-07-17T03:53:50;10.90;99.90
52451;DHT22;38366;53.176;6.540;2022-07-17T03:56:16;11.00;99.90
52451;DHT22;38366;53.176;6.540;2022-07-17T03:58:41;10.90;99.90
52451;DHT22;38366;53.176;6.540;2022-07-17T04:01:07;10.90;99.90
52451;DHT22;38366;53.176;6.540;2022-07-17T04:03:33;11.00;99.90
52451;DHT22;38366;53.176;6.540;2022-07-17T04:05:58;10.90;99.90
52451;DHT22;38366;53.176;6.540;2022-07-17T04:08:24;11.00;99.90
52451;DHT22;38366;53.176;6.540;2022-07-17T04:10:50;11.00;99.90
52451;DHT22;38366;53.176;6.540;2022-07-17T04:13:16;11.10;99.90
52451;DHT22;38366;53.176;6.540;2022-07-17T04:15:42;11.10;99.90
52451;DHT22;38366;53.176;6.540;2022-07-17T04:18:27;11.10;99.90
52451;DHT22;38366;53.176;6.540;2022-07-17T04:20:56;11.10;99.90
52451;DHT22;38366;53.176;6.540;2022-07-17T04:23:22;11.10;99.90
52451;DHT22;38366;53.176;6.540;2022-07-17T04:25:48;11.10;99.90
52451;DHT22;38366;53.176;6.540;2022-07-17T04:28:14;11.20;99.90
52451;DHT22;38366;53.176;6.540;2022-07-17T04:30:39;11.20;99.90
52451;DHT22;38366;53.176;6.540;2022-07-17T04:33:05;11.30;99.90
52451;DHT22;38366;53.176;6.540;2022-07-17T04:35:31;11.40;99.90
52451;DHT22;38366;53.176;6.540;2022-07-17T04:37:57;11.40;99.90
52451;DHT22;38366;53.176;6.540;2022-07-17T04:40:23;11.30;99.90
52451;DHT22;38366;53.176;6.540;2022-07-17T04:42:48;11.40;99.90
52451;DHT22;38366;53.176;6.540;2022-07-17T04:45:14;11.40;99.90
52451;DHT22;38366;53.176;6.540;2022-07-17T04:47:41;11.50;99.90
52451;DHT22;38366;53.176;6.540;2022-07-17T04:50:07;11.40;99.90
52451;DHT22;38366;53.176;6.540;2022-07-17T04:52:33;11.50;99.90
52451;DHT22;38366;53.176;6.540;2022-07-17T04:54:59;11.40;99.90
52451;DHT22;38366;53.176;6.540;2022-07-17T04:57:25;11.50;99.90
52451;DHT22;38366;53.176;6.540;2022-07-17T04:59:51;11.50;99.90
52451;DHT22;38366;53.176;6.540;2022-07-17T05:02:17;11.50;99.90
52451;DHT22;38366;53.176;6.540;2022-07-17T05:04:42;11.50;99.90
52451;DHT22;38366;53.176;6.540;2022-07-17T05:07:08;11.50;99.90
52451;DHT22;38366;53.176;6.540;2022-07-17T05:09:34;11.60;99.90
52451;DHT22;38366;53.176;6.540;2022-07-17T05:11:59;11.60;99.90
52451;DHT22;38366;53.176;6.540;2022-07-17T05:14:25;11.60;99.90
52451;DHT22;38366;53.176;6.540;2022-07-17T05:16:51;11.60;99.90
52451;DHT22;38366;53.176;6.540;2022-07-17T05:19:16;11.60;99.90
52451;DHT22;38366;53.176;6.540;2022-07-17T05:21:42;11.80;99.90
52451;DHT22;38366;53.176;6.540;2022-07-17T05:24:08;11.80;99.90
52451;DHT22;38366;53.176;6.540;2022-07-17T05:26:33;11.80;99.90
52451;DHT22;38366;53.176;6.540;2022-07-17T05:28:59;11.90;99.90
52451;DHT22;38366;53.176;6.540;2022-07-17T05:31:25;11.90;99.90
52451;DHT22;38366;53.176;6.540;2022-07-17T05:33:50;11.90;99.90
52451;DHT22;38366;53.176;6.540;2022-07-17T05:36:16;12.00;99.90
52451;DHT22;38366;53.176;6.540;2022-07-17T05:38:42;12.10;99.90
52451;DHT22;38366;53.176;6.540;2022-07-17T05:41:07;12.10;99.90
52451;DHT22;38366;53.176;6.540;2022-07-17T05:43:33;12.20;99.90
52451;DHT22;38366;53.176;6.540;2022-07-17T05:45:59;12.30;99.90
52451;DHT22;38366;53.176;6.540;2022-07-17T05:48:25;12.40;99.90
52451;DHT22;38366;53.176;6.540;2022-07-17T05:50:52;12.50;99.90
52451;DHT22;38366;53.176;6.540;2022-07-17T05:53:18;12.70;99.90
52451;DHT22;38366;53.176;6.540;2022-07-17T05:55:44;12.80;99.90
52451;DHT22;38366;53.176;6.540;2022-07-17T05:58:10;13.10;99.90
52451;DHT22;38366;53.176;6.540;2022-07-17T06:00:36;13.40;99.90
52451;DHT22;38366;53.176;6.540;2022-07-17T06:03:02;13.80;99.90
52451;DHT22;38366;53.176;6.540;2022-07-17T06:05:28;14.40;99.90
52451;DHT22;38366;53.176;6.540;2022-07-17T06:07:55;15.10;99.90
52451;DHT22;38366;53.176;6.540;2022-07-17T06:10:22;15.60;99.90
52451;DHT22;38366;53.176;6.540;2022-07-17T06:12:48;16.20;99.90
52451;DHT22;38366;53.176;6.540;2022-07-17T06:15:14;16.70;99.90
52451;DHT22;38366;53.176;6.540;2022-07-17T06:17:40;17.10;99.90
52451;DHT22;38366;53.176;6.540;2022-07-17T06:20:06;17.40;99.90
52451;DHT22;38366;53.176;6.540;2022-07-17T06:22:32;17.70;99.90
52451;DHT22;38366;53.176;6.540;2022-07-17T06:24:58;17.90;99.90
52451;DHT22;38366;53.176;6.540;2022-07-17T06:27:23;18.30;99.90
52451;DHT22;38366;53.176;6.540;2022-07-17T06:29:49;18.60;99.90
52451;DHT22;38366;53.176;6.540;2022-07-17T06:32:15;18.80;99.90
52451;DHT22;38366;53.176;6.540;2022-07-17T06:34:42;19.10;99.90
52451;DHT22;38366;53.176;6.540;2022-07-17T06:37:07;19.30;99.90
52451;DHT22;38366;53.176;6.540;2022-07-17T06:39:33;19.30;99.90
52451;DHT22;38366;53.176;6.540;2022-07-17T06:41:59;19.40;99.90
52451;DHT22;38366;53.176;6.540;2022-07-17T06:44:25;19.20;99.90
52451;DHT22;38366;53.176;6.540;2022-07-17T06:46:51;18.90;99.90
52451;DHT22;38366;53.176;6.540;2022-07-17T06:49:16;18.60;99.90
52451;DHT22;38366;53.176;6.540;2022-07-17T06:51:42;18.20;99.90
52451;DHT22;38366;53.176;6.540;2022-07-17T06:54:14;17.90;99.90
52451;DHT22;38366;53.176;6.540;2022-07-17T06:56:41;17.70;99.90
52451;DHT22;38366;53.176;6.540;2022-07-17T06:59:07;17.50;99.90
52451;DHT22;38366;53.176;6.540;2022-07-17T07:01:34;17.40;99.90
52451;DHT22;38366;53.176;6.540;2022-07-17T07:03:59;17.30;99.90
52451;DHT22;38366;53.176;6.540;2022-07-17T07:06:25;17.30;99.90
52451;DHT22;38366;53.176;6.540;2022-07-17T07:08:51;17.20;99.90
52451;DHT22;38366;53.176;6.540;2022-07-17T07:11:16;17.10;99.90
52451;DHT22;38366;53.176;6.540;2022-07-17T07:13:42;17.00;99.90
52451;DHT22;38366;53.176;6.540;2022-07-17T07:16:08;16.90;99.90
52451;DHT22;38366;53.176;6.540;2022-07-17T07:18:33;16.90;99.90
52451;DHT22;38366;53.176;6.540;2022-07-17T07:20:59;16.90;99.90
52451;DHT22;38366;53.176;6.540;2022-07-17T07:23:25;16.90;99.90
52451;DHT22;38366;53.176;6.540;2022-07-17T07:25:51;16.80;99.90
52451;DHT22;38366;53.176;6.540;2022-07-17T07:28:17;16.80;99.90
52451;DHT22;38366;53.176;6.540;2022-07-17T07:30:42;16.80;99.90
52451;DHT22;38366;53.176;6.540;2022-07-17T07:33:08;16.90;99.90
52451;DHT22;38366;53.176;6.540;2022-07-17T07:35:34;16.90;99.90
52451;DHT22;38366;53.176;6.540;2022-07-17T07:37:59;16.90;99.90
52451;DHT22;38366;53.176;6.540;2022-07-17T07:40:25;17.00;99.90
52451;DHT22;38366;53.176;6.540;2022-07-17T07:42:51;17.00;99.90
52451;DHT22;38366;53.176;6.540;2022-07-17T07:45:17;17.10;99.90
52451;DHT22;38366;53.176;6.540;2022-07-17T07:47:48;17.20;99.90
52451;DHT22;38366;53.176;6.540;2022-07-17T07:50:16;17.30;99.90
52451;DHT22;38366;53.176;6.540;2022-07-17T07:52:42;17.40;99.90
52451;DHT22;38366;53.176;6.540;2022-07-17T07:55:08;17.50;99.90
52451;DHT22;38366;53.176;6.540;2022-07-17T07:57:35;17.60;99.90
52451;DHT22;38366;53.176;6.540;2022-07-17T08:00:01;17.70;99.90
52451;DHT22;38366;53.176;6.540;2022-07-17T08:02:26;17.80;99.90
52451;DHT22;38366;53.176;6.540;2022-07-17T08:04:52;17.90;99.90
52451;DHT22;38366;53.176;6.540;2022-07-17T08:07:18;18.00;99.90
52451;DHT22;38366;53.176;6.540;2022-07-17T08:09:43;18.10;99.90
52451;DHT22;38366;53.176;6.540;2022-07-17T08:12:09;18.20;99.90
52451;DHT22;38366;53.176;6.540;2022-07-17T08:14:35;18.40;99.90
52451;DHT22;38366;53.176;6.540;2022-07-17T08:17:00;18.80;99.90
52451;DHT22;38366;53.176;6.540;2022-07-17T08:19:26;19.40;99.90
52451;DHT22;38366;53.176;6.540;2022-07-17T08:21:51;19.90;99.90
52451;DHT22;38366;53.176;6.540;2022-07-17T08:24:17;20.30;99.90
52451;DHT22;38366;53.176;6.540;2022-07-17T08:26:43;20.60;99.90
52451;DHT22;38366;53.176;6.540;2022-07-17T08:29:09;20.90;99.90
52451;DHT22;38366;53.176;6.540;2022-07-17T08:31:35;21.20;99.90
52451;DHT22;38366;53.176;6.540;2022-07-17T08:34:00;21.50;99.90
52451;DHT22;38366;53.176;6.540;2022-07-17T08:36:26;21.70;99.90
52451;DHT22;38366;53.176;6.540;2022-07-17T08:38:52;22.00;99.90
52451;DHT22;38366;53.176;6.540;2022-07-17T08:41:18;22.00;99.90
52451;DHT22;38366;53.176;6.540;2022-07-17T08:43:47;22.30;99.90
52451;DHT22;38366;53.176;6.540;2022-07-17T08:46:14;22.40;99.90
52451;DHT22;38366;53.176;6.540;2022-07-17T08:48:43;22.40;99.90
52451;DHT22;38366;53.176;6.540;2022-07-17T08:51:10;22.70;99.90
52451;DHT22;38366;53.176;6.540;2022-07-17T08:53:36;22.90;99.90
52451;DHT22;38366;53.176;6.540;2022-07-17T08:56:02;22.90;99.90
52451;DHT22;38366;53.176;6.540;2022-07-17T08:58:29;23.10;99.90
52451;DHT22;38366;53.176;6.540;2022-07-17T09:00:55;23.40;99.90
52451;DHT22;38366;53.176;6.540;2022-07-17T09:03:21;23.80;99.90
52451;DHT22;38366;53.176;6.540;2022-07-17T09:05:49;24.10;99.40
52451;DHT22;38366;53.176;6.540;2022-07-17T09:08:23;24.20;99.70
52451;DHT22;38366;53.176;6.540;2022-07-17T09:10:53;24.00;98.30
52451;DHT22;38366;53.176;6.540;2022-07-17T09:13:29;24.10;98.90
52451;DHT22;38366;53.176;6.540;2022-07-17T09:16:08;24.40;99.60
52451;DHT22;38366;53.176;6.540;2022-07-17T09:19:02;24.80;98.90
52451;DHT22;38366;53.176;6.540;2022-07-17T09:21:29;25.10;97.40
52451;DHT22;38366;53.176;6.540;2022-07-17T09:24:03;24.70;97.60
52451;DHT22;38366;53.176;6.540;2022-07-17T09:26:30;25.00;97.30
52451;DHT22;38366;53.176;6.540;2022-07-17T09:29:00;25.00;96.90
52451;DHT22;38366;53.176;6.540;2022-07-17T09:31:26;25.00;97.60
52451;DHT22;38366;53.176;6.540;2022-07-17T09:33:52;24.90;97.10
52451;DHT22;38366;53.176;6.540;2022-07-17T09:36:18;25.20;97.90
52451;DHT22;38366;53.176;6.540;2022-07-17T09:38:44;25.50;98.20
52451;DHT22;38366;53.176;6.540;2022-07-17T09:41:18;25.80;97.00
52451;DHT22;38366;53.176;6.540;2022-07-17T09:46:20;26.40;95.70
52451;DHT22;38366;53.176;6.540;2022-07-17T09:48:58;26.40;95.30
52451;DHT22;38366;53.176;6.540;2022-07-17T09:51:33;26.60;95.80
52451;DHT22;38366;53.176;6.540;2022-07-17T09:54:02;26.40;94.90
52451;DHT22;38366;53.176;6.540;2022-07-17T09:56:30;26.30;95.10
52451;DHT22;38366;53.176;6.540;2022-07-17T09:59:04;26.30;95.70
52451;DHT22;38366;53.176;6.540;2022-07-17T10:01:33;26.90;96.00
52451;DHT22;38366;53.176;6.540;2022-07-17T10:04:02;26.80;95.20
52451;DHT22;38366;53.176;6.540;2022-07-17T10:06:29;26.70;95.20
52451;DHT22;38366;53.176;6.540;2022-07-17T10:08:55;26.70;95.60
52451;DHT22;38366;53.176;6.540;2022-07-17T10:11:22;27.00;96.10
52451;DHT22;38366;53.176;6.540;2022-07-17T10:13:50;27.00;95.40
52451;DHT22;38366;53.176;6.540;2022-07-17T10:16:29;27.00;94.70
52451;DHT22;38366;53.176;6.540;2022-07-17T10:18:55;27.10;94.10
52451;DHT22;38366;53.176;6.540;2022-07-17T10:21:24;27.20;94.40
52451;DHT22;38366;53.176;6.540;2022-07-17T10:29:08;27.70;94.00
52451;DHT22;38366;53.176;6.540;2022-07-17T10:31:34;27.90;93.30
52451;DHT22;38366;53.176;6.540;2022-07-17T10:34:04;27.80;93.00
52451;DHT22;38366;53.176;6.540;2022-07-17T10:41:39;28.10;93.00
52451;DHT22;38366;53.176;6.540;2022-07-17T10:44:05;27.90;93.00
52451;DHT22;38366;53.176;6.540;2022-07-17T10:46:31;28.10;93.30
52451;DHT22;38366;53.176;6.540;2022-07-17T10:48:57;28.10;92.40
52451;DHT22;38366;53.176;6.540;2022-07-17T10:51:26;28.00;92.70
52451;DHT22;38366;53.176;6.540;2022-07-17T10:53:56;27.90;92.70
52451;DHT22;38366;53.176;6.540;2022-07-17T10:56:25;27.90;93.40
52451;DHT22;38366;53.176;6.540;2022-07-17T10:58:52;28.50;93.20
52451;DHT22;38366;53.176;6.540;2022-07-17T11:01:21;28.70;92.40
52451;DHT22;38366;53.176;6.540;2022-07-17T11:03:52;28.90;92.60
52451;DHT22;38366;53.176;6.540;2022-07-17T11:06:24;29.00;92.70
52451;DHT22;38366;53.176;6.540;2022-07-17T11:08:55;28.90;93.30
52451;DHT22;38366;53.176;6.540;2022-07-17T11:14:18;28.80;93.60
52451;DHT22;38366;53.176;6.540;2022-07-17T11:16:49;28.70;93.00
52451;DHT22;38366;53.176;6.540;2022-07-17T11:19:32;28.90;92.50
52451;DHT22;38366;53.176;6.540;2022-07-17T11:22:01;28.70;92.80
52451;DHT22;38366;53.176;6.540;2022-07-17T11:27:12;27.80;92.80
52451;DHT22;38366;53.176;6.540;2022-07-17T11:29:42;28.10;92.70
52451;DHT22;38366;53.176;6.540;2022-07-17T11:32:09;28.10;93.30
52451;DHT22;38366;53.176;6.540;2022-07-17T11:34:35;28.30;92.90
52451;DHT22;38366;53.176;6.540;2022-07-17T11:37:06;28.70;93.20
52451;DHT22;38366;53.176;6.540;2022-07-17T11:39:45;29.10;93.20
52451;DHT22;38366;53.176;6.540;2022-07-17T11:42:20;29.10;92.10
52451;DHT22;38366;53.176;6.540;2022-07-17T11:44:49;29.20;92.10
52451;DHT22;38366;53.176;6.540;2022-07-17T11:47:21;29.20;92.10
52451;DHT22;38366;53.176;6.540;2022-07-17T11:49:47;29.30;92.70
52451;DHT22;38366;53.176;6.540;2022-07-17T11:52:15;29.70;92.60
52451;DHT22;38366;53.176;6.540;2022-07-17T11:54:52;29.40;92.20
52451;DHT22;38366;53.176;6.540;2022-07-17T11:57:22;29.70;91.60
52451;DHT22;38366;53.176;6.540;2022-07-17T11:59:49;29.70;91.70
52451;DHT22;38366;53.176;6.540;2022-07-17T12:02:18;29.80;91.70
52451;DHT22;38366;53.176;6.540;2022-07-17T12:04:50;29.30;91.90
52451;DHT22;38366;53.176;6.540;2022-07-17T12:07:16;29.40;92.80
52451;DHT22;38366;53.176;6.540;2022-07-17T12:09:42;29.50;92.40
52451;DHT22;38366;53.176;6.540;2022-07-17T12:12:21;29.50;92.10
52451;DHT22;38366;53.176;6.540;2022-07-17T12:14:55;29.70;92.40
52451;DHT22;38366;53.176;6.540;2022-07-17T12:17:22;29.90;92.20
52451;DHT22;38366;53.176;6.540;2022-07-17T12:19:48;30.20;93.30
52451;DHT22;38366;53.176;6.540;2022-07-17T12:22:13;30.60;92.20
52451;DHT22;38366;53.176;6.540;2022-07-17T12:24:41;30.70;92.90
52451;DHT22;38366;53.176;6.540;2022-07-17T12:27:10;30.60;92.50
52451;DHT22;38366;53.176;6.540;2022-07-17T12:29:36;30.60;91.90
52451;DHT22;38366;53.176;6.540;2022-07-17T12:32:04;30.50;91.30
52451;DHT22;38366;53.176;6.540;2022-07-17T12:34:30;30.40;92.40
52451;DHT22;38366;53.176;6.540;2022-07-17T12:36:56;30.50;92.10
52451;DHT22;38366;53.176;6.540;2022-07-17T12:39:22;30.50;91.80
52451;DHT22;38366;53.176;6.540;2022-07-17T12:41:48;30.70;92.50
52451;DHT22;38366;53.176;6.540;2022-07-17T12:44:14;30.80;91.70
52451;DHT22;38366;53.176;6.540;2022-07-17T12:46:39;30.70;91.50
52451;DHT22;38366;53.176;6.540;2022-07-17T12:49:05;30.70;90.80
52451;DHT22;38366;53.176;6.540;2022-07-17T12:51:31;30.70;91.30
52451;DHT22;38366;53.176;6.540;2022-07-17T12:53:57;30.80;91.30
52451;DHT22;38366;53.176;6.540;2022-07-17T12:56:22;31.00;92.00
52451;DHT22;38366;53.176;6.540;2022-07-17T12:58:49;31.00;91.20
52451;DHT22;38366;53.176;6.540;2022-07-17T13:01:16;30.90;91.30
52451;DHT22;38366;53.176;6.540;2022-07-17T13:03:42;30.90;90.70
52451;DHT22;38366;53.176;6.540;2022-07-17T13:06:08;31.00;90.70
52451;DHT22;38366;53.176;6.540;2022-07-17T13:08:34;31.30;90.90
52451;DHT22;38366;53.176;6.540;2022-07-17T13:11:00;31.60;91.20
52451;DHT22;38366;53.176;6.540;2022-07-17T13:13:26;31.50;90.80
52451;DHT22;38366;53.176;6.540;2022-07-17T13:15:51;31.20;90.70
52451;DHT22;38366;53.176;6.540;2022-07-17T13:18:17;30.40;90.20
52451;DHT22;38366;53.176;6.540;2022-07-17T13:20:43;30.60;91.00
52451;DHT22;38366;53.176;6.540;2022-07-17T13:23:09;31.00;90.70
52451;DHT22;38366;53.176;6.540;2022-07-17T13:25:34;30.80;90.40
52451;DHT22;38366;53.176;6.540;2022-07-17T13:28:00;30.60;90.90
52451;DHT22;38366;53.176;6.540;2022-07-17T13:30:26;30.70;91.20
52451;DHT22;38366;53.176;6.540;2022-07-17T13:32:52;30.40;90.40
52451;DHT22;38366;53.176;6.540;2022-07-17T13:35:18;30.40;91.20
52451;DHT22;38366;53.176;6.540;2022-07-17T13:37:45;30.20;90.40
52451;DHT22;38366;53.176;6.540;2022-07-17T13:40:11;30.30;90.80
52451;DHT22;38366;53.176;6.540;2022-07-17T13:42:37;30.50;91.10
52451;DHT22;38366;53.176;6.540;2022-07-17T13:45:03;30.80;91.00
52451;DHT22;38366;53.176;6.540;2022-07-17T13:47:29;31.00;90.50
52451;DHT22;38366;53.176;6.540;2022-07-17T13:49:55;30.90;91.20
52451;DHT22;38366;53.176;6.540;2022-07-17T13:52:22;31.00;90.70
52451;DHT22;38366;53.176;6.540;2022-07-17T13:54:47;30.70;90.50
52451;DHT22;38366;53.176;6.540;2022-07-17T13:57:13;30.50;91.00
52451;DHT22;38366;53.176;6.540;2022-07-17T13:59:39;30.40;90.80
52451;DHT22;38366;53.176;6.540;2022-07-17T14:02:06;30.30;90.70
52451;DHT22;38366;53.176;6.540;2022-07-17T14:04:32;30.40;91.00
52451;DHT22;38366;53.176;6.540;2022-07-17T14:06:58;30.30;90.60
52451;DHT22;38366;53.176;6.540;2022-07-17T14:09:24;30.00;90.70
52451;DHT22;38366;53.176;6.540;2022-07-17T14:11:49;30.10;90.80
52451;DHT22;38366;53.176;6.540;2022-07-17T14:14:15;30.10;91.00
52451;DHT22;38366;53.176;6.540;2022-07-17T14:16:41;30.40;90.90
52451;DHT22;38366;53.176;6.540;2022-07-17T14:19:06;30.10;91.20
52451;DHT22;38366;53.176;6.540;2022-07-17T14:21:34;29.90;90.80
52451;DHT22;38366;53.176;6.540;2022-07-17T14:24:01;29.90;90.50
52451;DHT22;38366;53.176;6.540;2022-07-17T14:26:28;29.90;90.70
52451;DHT22;38366;53.176;6.540;2022-07-17T14:28:53;29.90;90.60
52451;DHT22;38366;53.176;6.540;2022-07-17T14:31:19;29.50;90.80
52451;DHT22;38366;53.176;6.540;2022-07-17T14:33:45;29.50;91.20
52451;DHT22;38366;53.176;6.540;2022-07-17T14:36:12;29.50;92.40
52451;DHT22;38366;53.176;6.540;2022-07-17T14:38:38;29.50;91.80
52451;DHT22;38366;53.176;6.540;2022-07-17T14:41:05;29.40;91.20
52451;DHT22;38366;53.176;6.540;2022-07-17T14:43:32;29.40;92.00
52451;DHT22;38366;53.176;6.540;2022-07-17T14:45:57;29.30;91.30
52451;DHT22;38366;53.176;6.540;2022-07-17T14:48:23;29.40;91.10
52451;DHT22;38366;53.176;6.540;2022-07-17T14:50:49;29.40;90.90
52451;DHT22;38366;53.176;6.540;2022-07-17T14:53:15;29.00;90.90
52451;DHT22;38366;53.176;6.540;2022-07-17T14:55:41;29.30;91.50
52451;DHT22;38366;53.176;6.540;2022-07-17T14:58:07;29.40;91.50
52451;DHT22;38366;53.176;6.540;2022-07-17T15:00:33;29.60;91.00
52451;DHT22;38366;53.176;6.540;2022-07-17T15:02:59;29.60;91.00
52451;DHT22;38366;53.176;6.540;2022-07-17T15:05:25;29.70;90.80
52451;DHT22;38366;53.176;6.540;2022-07-17T15:07:50;29.40;91.00
52451;DHT22;38366;53.176;6.540;2022-07-17T15:10:16;29.40;91.70
52451;DHT22;38366;53.176;6.540;2022-07-17T15:12:42;29.40;91.90
52451;DHT22;38366;53.176;6.540;2022-07-17T15:15:08;29.40;91.90
52451;DHT22;38366;53.176;6.540;2022-07-17T15:17:34;29.40;91.40
52451;DHT22;38366;53.176;6.540;2022-07-17T15:20:00;29.10;91.10
52451;DHT22;38366;53.176;6.540;2022-07-17T15:22:25;29.10;91.40
52451;DHT22;38366;53.176;6.540;2022-07-17T15:24:51;29.00;92.00
52451;DHT22;38366;53.176;6.540;2022-07-17T15:27:17;28.90;91.90
52451;DHT22;38366;53.176;6.540;2022-07-17T15:29:43;28.80;91.90
52451;DHT22;38366;53.176;6.540;2022-07-17T15:32:09;28.80;92.00
52451;DHT22;38366;53.176;6.540;2022-07-17T15:34:35;28.80;92.10
52451;DHT22;38366;53.176;6.540;2022-07-17T15:37:03;28.90;92.30
52451;DHT22;38366;53.176;6.540;2022-07-17T15:39:30;29.00;91.60
52451;DHT22;38366;53.176;6.540;2022-07-17T15:41:55;29.00;91.40
52451;DHT22;38366;53.176;6.540;2022-07-17T15:44:21;28.90;91.60
52451;DHT22;38366;53.176;6.540;2022-07-17T15:46:47;28.90;91.60